sensor_id;sensor_type;location;lat;lon;timestamp;temperature;humidity
27164;DHT22;14685;50.618;7.024;2024-02-26T00:00:12;9.80;99.90
27164;DHT22;14685;50.618;7.024;2024-02-26T00:02:39;9.90;99.90
27164;DHT22;14685;50.618;7.024;2024-02-26T00:05:07;9.90;99.90
27164;DHT22;14685;50.618;7.024;2024-02-26T00:07:36;9.90;99.90
27164;DHT22;14685;50.618;7.024;2024-02-26T00:10:03;9.90;99.90
27164;DHT22;14685;50.618;7.024;2024-02-26T00:12:31;10.00;99.90
27164;DHT22;14685;50.618;7.024;2024-02-26T00:14:57;10.00;99.90
27164;DHT22;14685;50.618;7.024;2024-02-26T00:17:26;10.00;99.90
27164;DHT22;14685;50.618;7.024;2024-02-26T00:19:52;10.10;99.90
27164;DHT22;14685;50.618;7.024;2024-02-26T00:22:20;10.10;99.90
27164;DHT22;14685;50.618;7.024;2024-02-26T00:24:48;10.10;99.90
27164;DHT22;14685;50.618;7.024;2024-02-26T00:27:16;10.10;99.90
27164;DHT22;14685;50.618;7.024;2024-02-26T00:29:43;10.10;99.90
27164;DHT22;14685;50.618;7.024;2024-02-26T00:32:11;10.10;99.90
27164;DHT22;14685;50.618;7.024;2024-02-26T00:34:39;10.10;99.90
27164;DHT22;14685;50.618;7.024;2024-02-26T00:37:08;10.10;99.90
27164;DHT22;14685;50.618;7.024;2024-02-26T00:39:35;10.10;99.90
27164;DHT22;14685;50.618;7.024;2024-02-26T00:42:02;10.10;99.90
27164;DHT22;14685;50.618;7.024;2024-02-26T00:44:30;10.00;99.90
27164;DHT22;14685;50.618;7.024;2024-02-26T00:46:57;9.90;99.90
27164;DHT22;14685;50.618;7.024;2024-02-26T00:49:23;9.90;99.90
27164;DHT22;14685;50.618;7.024;2024-02-26T00:51:50;9.90;99.90
27164;DHT22;14685;50.618;7.024;2024-02-26T00:54:18;9.90;99.90
27164;DHT22;14685;50.618;7.024;2024-02-26T00:56:45;10.00;99.90
27164;DHT22;14685;50.618;7.024;2024-02-26T00:59:11;10.00;99.90
27164;DHT22;14685;50.618;7.024;2024-02-26T01:01:38;10.00;99.90
27164;DHT22;14685;50.618;7.024;2024-02-26T01:04:05;10.00;99.90
27164;DHT22;14685;50.618;7.024;2024-02-26T01:06:32;10.00;99.90
27164;DHT22;14685;50.618;7.024;2024-02-26T01:08:59;10.10;99.90
27164;DHT22;14685;50.618;7.024;2024-02-26T01:11:26;10.10;99.90
27164;DHT22;14685;50.618;7.024;2024-02-26T01:13:53;10.10;99.90
27164;DHT22;14685;50.618;7.024;2024-02-26T01:16:23;10.10;99.90
27164;DHT22;14685;50.618;7.024;2024-02-26T01:18:51;10.10;99.90
27164;DHT22;14685;50.618;7.024;2024-02-26T01:21:20;10.20;99.90
27164;DHT22;14685;50.618;7.024;2024-02-26T01:23:47;10.20;99.90
27164;DHT22;14685;50.618;7.024;2024-02-26T01:26:14;10.20;99.90
27164;DHT22;14685;50.618;7.024;2024-02-26T01:28:41;10.20;99.90
27164;DHT22;14685;50.618;7.024;2024-02-26T01:31:09;10.20;99.90
27164;DHT22;14685;50.618;7.024;2024-02-26T01:33:36;10.20;99.90
27164;DHT22;14685;50.618;7.024;2024-02-26T01:36:04;10.10;99.90
27164;DHT22;14685;50.618;7.024;2024-02-26T01:38:31;10.10;99.90
27164;DHT22;14685;50.618;7.024;2024-02-26T01:40:57;10.00;99.90
27164;DHT22;14685;50.618;7.024;2024-02-26T01:43:24;10.10;99.90
27164;DHT22;14685;50.618;7.024;2024-02-26T01:45:54;10.10;99.90
27164;DHT22;14685;50.618;7.024;2024-02-26T01:48:21;10.10;99.90
27164;DHT22;14685;50.618;7.024;2024-02-26T01:50:49;10.10;99.90
27164;DHT22;14685;50.618;7.024;2024-02-26T01:53:16;10.10;99.90
27164;DHT22;14685;50.618;7.024;2024-02-26T01:55:44;10.10;99.90
27164;DHT22;14685;50.618;7.024;2024-02-26T01:58:11;10.20;99.90
27164;DHT22;14685;50.618;7.024;2024-02-26T02:00:38;10.20;99.90
27164;DHT22;14685;50.618;7.024;2024-02-26T02:03:06;10.20;99.90
27164;DHT22;14685;50.618;7.024;2024-02-26T02:05:33;10.20;99.90
27164;DHT22;14685;50.618;7.024;2024-02-26T02:08:02;10.20;99.90
27164;DHT22;14685;50.618;7.024;2024-02-26T02:10:30;10.20;99.90
27164;DHT22;14685;50.618;7.024;2024-02-26T02:12:57;10.30;99.90
27164;DHT22;14685;50.618;7.024;2024-02-26T02:15:25;10.20;99.90
27164;DHT22;14685;50.618;7.024;2024-02-26T02:17:52;10.20;99.90
27164;DHT22;14685;50.618;7.024;2024-02-26T02:20:23;10.20;99.90
27164;DHT22;14685;50.618;7.024;2024-02-26T02:22:50;10.30;99.90
27164;DHT22;14685;50.618;7.024;2024-02-26T02:25:19;10.20;99.90
27164;DHT22;14685;50.618;7.024;2024-02-26T02:27:46;10.20;99.90
27164;DHT22;14685;50.618;7.024;2024-02-26T02:30:13;10.20;99.90
27164;DHT22;14685;50.618;7.024;2024-02-26T02:32:41;10.20;99.90
27164;DHT22;14685;50.618;7.024;2024-02-26T02:35:09;10.10;99.90
27164;DHT22;14685;50.618;7.024;2024-02-26T02:37:36;10.10;99.90
27164;DHT22;14685;50.618;7.024;2024-02-26T02:40:04;10.10;99.90
27164;DHT22;14685;50.618;7.024;2024-02-26T02:42:32;10.10;99.90
27164;DHT22;14685;50.618;7.024;2024-02-26T02:44:59;10.00;99.90
27164;DHT22;14685;50.618;7.024;2024-02-26T02:47:26;9.90;99.90
27164;DHT22;14685;50.618;7.024;2024-02-26T02:49:56;9.90;99.90
27164;DHT22;14685;50.618;7.024;2024-02-26T02:52:24;9.80;99.90
27164;DHT22;14685;50.618;7.024;2024-02-26T02:54:51;9.80;99.90
27164;DHT22;14685;50.618;7.024;2024-02-26T02:57:18;9.70;99.90
27164;DHT22;14685;50.618;7.024;2024-02-26T02:59:46;9.60;99.90
27164;DHT22;14685;50.618;7.024;2024-02-26T03:02:13;9.50;99.90
27164;DHT22;14685;50.618;7.024;2024-02-26T03:04:40;9.50;99.90
27164;DHT22;14685;50.618;7.024;2024-02-26T03:07:07;9.50;99.90
27164;DHT22;14685;50.618;7.024;2024-02-26T03:09:34;9.50;99.90
27164;DHT22;14685;50.618;7.024;2024-02-26T03:12:01;9.50;99.90
27164;DHT22;14685;50.618;7.024;2024-02-26T03:14:28;9.50;99.90
27164;DHT22;14685;50.618;7.024;2024-02-26T03:16:55;9.60;99.90
27164;DHT22;14685;50.618;7.024;2024-02-26T03:19:22;9.50;99.90
27164;DHT22;14685;50.618;7.024;2024-02-26T03:21:52;9.50;99.90
27164;DHT22;14685;50.618;7.024;2024-02-26T03:24:20;9.60;99.90
27164;DHT22;14685;50.618;7.024;2024-02-26T03:26:47;9.50;99.90
27164;DHT22;14685;50.618;7.024;2024-02-26T03:29:14;9.50;99.90
27164;DHT22;14685;50.618;7.024;2024-02-26T03:31:41;9.50;99.90
27164;DHT22;14685;50.618;7.024;2024-02-26T03:34:10;9.50;99.90
27164;DHT22;14685;50.618;7.024;2024-02-26T03:36:39;9.50;99.90
27164;DHT22;14685;50.618;7.024;2024-02-26T03:39:07;9.50;99.90
27164;DHT22;14685;50.618;7.024;2024-02-26T03:41:34;9.50;99.90
27164;DHT22;14685;50.618;7.024;2024-02-26T03:44:02;9.40;99.90
27164;DHT22;14685;50.618;7.024;2024-02-26T03:46:29;9.30;99.90
27164;DHT22;14685;50.618;7.024;2024-02-26T03:48:56;9.10;99.90
27164;DHT22;14685;50.618;7.024;2024-02-26T03:51:24;9.00;99.90
27164;DHT22;14685;50.618;7.024;2024-02-26T03:53:51;9.00;99.90
27164;DHT22;14685;50.618;7.024;2024-02-26T03:56:19;8.90;99.90
27164;DHT22;14685;50.618;7.024;2024-02-26T03:58:47;8.80;99.90
27164;DHT22;14685;50.618;7.024;2024-02-26T04:01:15;8.80;99.90
27164;DHT22;14685;50.618;7.024;2024-02-26T04:03:42;8.70;99.90
27164;DHT22;14685;50.618;7.024;2024-02-26T04:06:11;8.70;99.90
27164;DHT22;14685;50.618;7.024;2024-02-26T04:08:41;8.70;99.90
27164;DHT22;14685;50.618;7.024;2024-02-26T04:11:09;8.80;99.90
27164;DHT22;14685;50.618;7.024;2024-02-26T04:13:36;8.70;99.90
27164;DHT22;14685;50.618;7.024;2024-02-26T04:16:06;8.60;99.90
27164;DHT22;14685;50.618;7.024;2024-02-26T04:18:33;8.70;99.90
27164;DHT22;14685;50.618;7.024;2024-02-26T04:21:00;8.80;99.90
27164;DHT22;14685;50.618;7.024;2024-02-26T04:23:27;8.80;99.90
27164;DHT22;14685;50.618;7.024;2024-02-26T04:25:55;8.80;99.90
27164;DHT22;14685;50.618;7.024;2024-02-26T04:28:22;8.80;99.90
27164;DHT22;14685;50.618;7.024;2024-02-26T04:30:48;8.80;99.90
27164;DHT22;14685;50.618;7.024;2024-02-26T04:33:15;8.80;99.90
27164;DHT22;14685;50.618;7.024;2024-02-26T04:35:44;8.90;99.90
27164;DHT22;14685;50.618;7.024;2024-02-26T04:38:11;8.80;99.90
27164;DHT22;14685;50.618;7.024;2024-02-26T04:40:39;8.70;99.90
27164;DHT22;14685;50.618;7.024;2024-02-26T04:43:06;8.70;99.90
27164;DHT22;14685;50.618;7.024;2024-02-26T04:45:33;8.70;99.90
27164;DHT22;14685;50.618;7.024;2024-02-26T04:48:00;8.80;99.90
27164;DHT22;14685;50.618;7.024;2024-02-26T04:50:27;8.80;99.90
27164;DHT22;14685;50.618;7.024;2024-02-26T04:52:54;8.90;99.90
27164;DHT22;14685;50.618;7.024;2024-02-26T04:55:21;8.90;99.90
27164;DHT22;14685;50.618;7.024;2024-02-26T04:57:49;8.90;99.90
27164;DHT22;14685;50.618;7.024;2024-02-26T05:00:17;8.90;99.90
27164;DHT22;14685;50.618;7.024;2024-02-26T05:02:45;8.90;99.90
27164;DHT22;14685;50.618;7.024;2024-02-26T05:05:13;8.90;99.90
27164;DHT22;14685;50.618;7.024;2024-02-26T05:07:41;9.00;99.90
27164;DHT22;14685;50.618;7.024;2024-02-26T05:10:12;9.00;99.90
27164;DHT22;14685;50.618;7.024;2024-02-26T05:12:39;9.00;99.90
27164;DHT22;14685;50.618;7.024;2024-02-26T05:15:08;9.00;99.90
27164;DHT22;14685;50.618;7.024;2024-02-26T05:17:35;9.00;99.90
27164;DHT22;14685;50.618;7.024;2024-02-26T05:20:02;9.00;99.90
27164;DHT22;14685;50.618;7.024;2024-02-26T05:22:29;9.00;99.90
27164;DHT22;14685;50.618;7.024;2024-02-26T05:24:56;9.00;99.90
27164;DHT22;14685;50.618;7.024;2024-02-26T05:27:23;9.00;99.90
27164;DHT22;14685;50.618;7.024;2024-02-26T05:29:50;9.00;99.90
27164;DHT22;14685;50.618;7.024;2024-02-26T05:32:18;9.00;99.90
27164;DHT22;14685;50.618;7.024;2024-02-26T05:34:46;9.00;99.90
27164;DHT22;14685;50.618;7.024;2024-02-26T05:37:13;9.00;99.90
27164;DHT22;14685;50.618;7.024;2024-02-26T05:39:43;8.90;99.90
27164;DHT22;14685;50.618;7.024;2024-02-26T05:42:10;8.90;99.90
27164;DHT22;14685;50.618;7.024;2024-02-26T05:44:38;8.90;99.90
27164;DHT22;14685;50.618;7.024;2024-02-26T05:47:06;8.90;99.90
27164;DHT22;14685;50.618;7.024;2024-02-26T05:49:33;8.90;99.90
27164;DHT22;14685;50.618;7.024;2024-02-26T05:52:00;8.90;99.90
27164;DHT22;14685;50.618;7.024;2024-02-26T05:54:28;8.90;99.90
27164;DHT22;14685;50.618;7.024;2024-02-26T05:56:55;8.90;99.90
27164;DHT22;14685;50.618;7.024;2024-02-26T05:59:22;9.00;99.90
27164;DHT22;14685;50.618;7.024;2024-02-26T06:01:49;8.90;99.90
27164;DHT22;14685;50.618;7.024;2024-02-26T06:04:17;8.90;99.90
27164;DHT22;14685;50.618;7.024;2024-02-26T06:06:45;8.80;99.90
27164;DHT22;14685;50.618;7.024;2024-02-26T06:09:12;8.80;99.90
27164;DHT22;14685;50.618;7.024;2024-02-26T06:11:40;8.90;99.90
27164;DHT22;14685;50.618;7.024;2024-02-26T06:14:07;8.80;99.90
27164;DHT22;14685;50.618;7.024;2024-02-26T06:16:35;8.70;99.90
27164;DHT22;14685;50.618;7.024;2024-02-26T06:19:03;8.70;99.90
27164;DHT22;14685;50.618;7.024;2024-02-26T06:21:36;8.60;99.90
27164;DHT22;14685;50.618;7.024;2024-02-26T06:24:03;8.70;99.90
27164;DHT22;14685;50.618;7.024;2024-02-26T06:26:33;8.60;99.90
27164;DHT22;14685;50.618;7.024;2024-02-26T06:29:00;8.60;99.90
27164;DHT22;14685;50.618;7.024;2024-02-26T06:31:27;8.60;99.90
27164;DHT22;14685;50.618;7.024;2024-02-26T06:33:54;8.60;99.90
27164;DHT22;14685;50.618;7.024;2024-02-26T06:36:23;8.60;99.90
27164;DHT22;14685;50.618;7.024;2024-02-26T06:38:50;8.60;99.90
27164;DHT22;14685;50.618;7.024;2024-02-26T06:41:18;8.60;99.90
27164;DHT22;14685;50.618;7.024;2024-02-26T06:43:48;8.60;99.90
27164;DHT22;14685;50.618;7.024;2024-02-26T06:46:15;8.60;99.90
27164;DHT22;14685;50.618;7.024;2024-02-26T06:48:43;8.60;99.90
27164;DHT22;14685;50.618;7.024;2024-02-26T06:51:10;8.60;99.90
27164;DHT22;14685;50.618;7.024;2024-02-26T06:53:39;8.70;99.90
27164;DHT22;14685;50.618;7.024;2024-02-26T06:56:06;8.70;99.90
27164;DHT22;14685;50.618;7.024;2024-02-26T06:58:33;8.80;99.90
27164;DHT22;14685;50.618;7.024;2024-02-26T07:01:00;8.80;99.90
27164;DHT22;14685;50.618;7.024;2024-02-26T07:03:26;8.80;99.90
27164;DHT22;14685;50.618;7.024;2024-02-26T07:05:55;8.80;99.90
27164;DHT22;14685;50.618;7.024;2024-02-26T07:08:22;8.70;99.90
27164;DHT22;14685;50.618;7.024;2024-02-26T07:10:50;8.80;99.90
27164;DHT22;14685;50.618;7.024;2024-02-26T07:13:18;8.80;99.90
27164;DHT22;14685;50.618;7.024;2024-02-26T07:15:45;8.80;99.90
27164;DHT22;14685;50.618;7.024;2024-02-26T07:18:12;8.90;99.90
27164;DHT22;14685;50.618;7.024;2024-02-26T07:20:40;8.80;99.90
27164;DHT22;14685;50.618;7.024;2024-02-26T07:23:08;8.80;99.90
27164;DHT22;14685;50.618;7.024;2024-02-26T07:25:36;8.70;99.90
27164;DHT22;14685;50.618;7.024;2024-02-26T07:28:03;8.70;99.90
27164;DHT22;14685;50.618;7.024;2024-02-26T07:30:31;8.70;99.90
27164;DHT22;14685;50.618;7.024;2024-02-26T07:32:59;8.80;99.90
27164;DHT22;14685;50.618;7.024;2024-02-26T07:35:26;8.80;99.90
27164;DHT22;14685;50.618;7.024;2024-02-26T07:37:54;8.80;99.90
27164;DHT22;14685;50.618;7.024;2024-02-26T07:40:21;8.70;99.90
27164;DHT22;14685;50.618;7.024;2024-02-26T07:42:48;8.70;99.90
27164;DHT22;14685;50.618;7.024;2024-02-26T07:45:15;8.80;99.90
27164;DHT22;14685;50.618;7.024;2024-02-26T07:47:44;8.80;99.90
27164;DHT22;14685;50.618;7.024;2024-02-26T07:50:12;8.90;99.90
27164;DHT22;14685;50.618;7.024;2024-02-26T07:52:39;8.90;99.90
27164;DHT22;14685;50.618;7.024;2024-02-26T07:55:07;8.80;99.90
27164;DHT22;14685;50.618;7.024;2024-02-26T07:57:35;8.90;99.90
27164;DHT22;14685;50.618;7.024;2024-02-26T08:00:03;8.80;99.90
27164;DHT22;14685;50.618;7.024;2024-02-26T08:02:30;8.90;99.90
27164;DHT22;14685;50.618;7.024;2024-02-26T08:04:57;8.90;99.90
27164;DHT22;14685;50.618;7.024;2024-02-26T08:07:24;8.90;99.90
27164;DHT22;14685;50.618;7.024;2024-02-26T08:09:51;8.90;99.90
27164;DHT22;14685;50.618;7.024;2024-02-26T08:12:18;8.90;99.90
27164;DHT22;14685;50.618;7.024;2024-02-26T08:14:46;8.90;99.90
27164;DHT22;14685;50.618;7.024;2024-02-26T08:17:13;8.90;99.90
27164;DHT22;14685;50.618;7.024;2024-02-26T08:19:40;8.90;99.90
27164;DHT22;14685;50.618;7.024;2024-02-26T08:22:07;8.90;99.90
27164;DHT22;14685;50.618;7.024;2024-02-26T08:24:33;8.90;99.90
27164;DHT22;14685;50.618;7.024;2024-02-26T08:27:01;9.00;99.90
27164;DHT22;14685;50.618;7.024;2024-02-26T08:29:28;9.00;99.90
27164;DHT22;14685;50.618;7.024;2024-02-26T08:31:58;9.00;99.90
27164;DHT22;14685;50.618;7.024;2024-02-26T08:34:29;9.00;99.90
27164;DHT22;14685;50.618;7.024;2024-02-26T08:36:56;8.90;99.90
27164;DHT22;14685;50.618;7.024;2024-02-26T08:39:23;9.00;99.90
27164;DHT22;14685;50.618;7.024;2024-02-26T08:41:52;9.00;99.90
27164;DHT22;14685;50.618;7.024;2024-02-26T08:44:19;9.00;99.90
27164;DHT22;14685;50.618;7.024;2024-02-26T08:46:46;9.00;99.90
27164;DHT22;14685;50.618;7.024;2024-02-26T08:49:13;9.00;99.90
27164;DHT22;14685;50.618;7.024;2024-02-26T08:51:42;9.00;99.90
27164;DHT22;14685;50.618;7.024;2024-02-26T08:54:10;9.00;99.90
27164;DHT22;14685;50.618;7.024;2024-02-26T08:56:37;9.00;99.90
27164;DHT22;14685;50.618;7.024;2024-02-26T08:59:04;9.00;99.90
27164;DHT22;14685;50.618;7.024;2024-02-26T09:01:34;9.10;99.90
27164;DHT22;14685;50.618;7.024;2024-02-26T09:04:01;9.10;99.90
27164;DHT22;14685;50.618;7.024;2024-02-26T09:06:28;9.10;99.90
27164;DHT22;14685;50.618;7.024;2024-02-26T09:08:56;9.10;99.90
27164;DHT22;14685;50.618;7.024;2024-02-26T09:11:27;9.20;99.90
27164;DHT22;14685;50.618;7.024;2024-02-26T09:13:55;9.10;99.90
27164;DHT22;14685;50.618;7.024;2024-02-26T09:16:24;9.20;99.90
27164;DHT22;14685;50.618;7.024;2024-02-26T09:18:51;9.20;99.90
27164;DHT22;14685;50.618;7.024;2024-02-26T09:21:19;9.20;99.90
27164;DHT22;14685;50.618;7.024;2024-02-26T09:23:51;9.30;99.90
27164;DHT22;14685;50.618;7.024;2024-02-26T09:26:18;9.30;99.90
27164;DHT22;14685;50.618;7.024;2024-02-26T09:28:45;9.30;99.90
27164;DHT22;14685;50.618;7.024;2024-02-26T09:31:12;9.30;99.90
27164;DHT22;14685;50.618;7.024;2024-02-26T09:33:39;9.20;99.90
27164;DHT22;14685;50.618;7.024;2024-02-26T09:36:06;9.30;99.90
27164;DHT22;14685;50.618;7.024;2024-02-26T09:38:33;9.20;99.90
27164;DHT22;14685;50.618;7.024;2024-02-26T09:41:19;9.30;99.90
27164;DHT22;14685;50.618;7.024;2024-02-26T09:43:45;9.30;99.90
27164;DHT22;14685;50.618;7.024;2024-02-26T09:46:15;9.30;99.90
27164;DHT22;14685;50.618;7.024;2024-02-26T09:48:45;9.30;99.90
27164;DHT22;14685;50.618;7.024;2024-02-26T09:51:15;9.30;99.90
27164;DHT22;14685;50.618;7.024;2024-02-26T09:53:43;9.30;99.90
27164;DHT22;14685;50.618;7.024;2024-02-26T09:56:12;9.40;99.90
27164;DHT22;14685;50.618;7.024;2024-02-26T09:58:41;9.30;99.90
27164;DHT22;14685;50.618;7.024;2024-02-26T10:01:16;9.40;99.90
27164;DHT22;14685;50.618;7.024;2024-02-26T10:03:44;9.40;99.90
27164;DHT22;14685;50.618;7.024;2024-02-26T10:06:14;9.40;99.90
27164;DHT22;14685;50.618;7.024;2024-02-26T10:08:41;9.40;99.90
27164;DHT22;14685;50.618;7.024;2024-02-26T10:11:10;9.40;99.90
27164;DHT22;14685;50.618;7.024;2024-02-26T10:13:39;9.50;99.90
27164;DHT22;14685;50.618;7.024;2024-02-26T10:16:08;9.50;99.90
27164;DHT22;14685;50.618;7.024;2024-02-26T10:18:51;9.50;99.90
27164;DHT22;14685;50.618;7.024;2024-02-26T10:21:26;9.50;99.90
27164;DHT22;14685;50.618;7.024;2024-02-26T10:23:53;9.50;99.90
27164;DHT22;14685;50.618;7.024;2024-02-26T10:26:21;9.60;99.90
27164;DHT22;14685;50.618;7.024;2024-02-26T10:28:49;9.60;99.90
27164;DHT22;14685;50.618;7.024;2024-02-26T10:31:21;9.60;99.90
27164;DHT22;14685;50.618;7.024;2024-02-26T10:33:48;9.50;99.90
27164;DHT22;14685;50.618;7.024;2024-02-26T10:36:16;9.50;99.90
27164;DHT22;14685;50.618;7.024;2024-02-26T10:38:43;9.50;99.90
27164;DHT22;14685;50.618;7.024;2024-02-26T10:41:13;9.50;99.90
27164;DHT22;14685;50.618;7.024;2024-02-26T10:43:42;9.50;99.90
27164;DHT22;14685;50.618;7.024;2024-02-26T10:46:10;9.40;99.90
27164;DHT22;14685;50.618;7.024;2024-02-26T10:48:37;9.50;99.90
27164;DHT22;14685;50.618;7.024;2024-02-26T10:51:04;9.50;99.90
27164;DHT22;14685;50.618;7.024;2024-02-26T10:53:33;9.50;99.90
27164;DHT22;14685;50.618;7.024;2024-02-26T10:56:04;9.50;99.90
27164;DHT22;14685;50.618;7.024;2024-02-26T10:58:34;9.50;99.90
27164;DHT22;14685;50.618;7.024;2024-02-26T11:01:03;9.50;99.90
27164;DHT22;14685;50.618;7.024;2024-02-26T11:03:31;9.60;99.90
27164;DHT22;14685;50.618;7.024;2024-02-26T11:06:03;9.60;99.90
27164;DHT22;14685;50.618;7.024;2024-02-26T11:08:31;9.60;99.90
27164;DHT22;14685;50.618;7.024;2024-02-26T11:10:59;9.60;99.90
27164;DHT22;14685;50.618;7.024;2024-02-26T11:13:28;9.60;99.90
27164;DHT22;14685;50.618;7.024;2024-02-26T11:16:01;9.70;99.90
27164;DHT22;14685;50.618;7.024;2024-02-26T11:18:28;9.70;99.90
27164;DHT22;14685;50.618;7.024;2024-02-26T11:21:00;9.70;99.90
27164;DHT22;14685;50.618;7.024;2024-02-26T11:23:28;9.70;99.90
27164;DHT22;14685;50.618;7.024;2024-02-26T11:25:57;9.70;99.90
27164;DHT22;14685;50.618;7.024;2024-02-26T11:28:25;9.70;99.90
27164;DHT22;14685;50.618;7.024;2024-02-26T11:30:54;9.60;99.90
27164;DHT22;14685;50.618;7.024;2024-02-26T11:33:22;9.60;99.90
27164;DHT22;14685;50.618;7.024;2024-02-26T11:35:49;9.60;99.90
27164;DHT22;14685;50.618;7.024;2024-02-26T11:38:24;9.60;99.90
27164;DHT22;14685;50.618;7.024;2024-02-26T11:40:53;9.60;99.90
27164;DHT22;14685;50.618;7.024;2024-02-26T11:44:09;9.70;99.90
27164;DHT22;14685;50.618;7.024;2024-02-26T11:46:30;9.70;99.90
27164;DHT22;14685;50.618;7.024;2024-02-26T11:49:48;9.70;99.90
27164;DHT22;14685;50.618;7.024;2024-02-26T11:51:56;9.70;99.90
27164;DHT22;14685;50.618;7.024;2024-02-26T11:54:58;9.70;99.90
27164;DHT22;14685;50.618;7.024;2024-02-26T11:57:27;9.70;99.90
27164;DHT22;14685;50.618;7.024;2024-02-26T12:00:17;9.60;99.90
27164;DHT22;14685;50.618;7.024;2024-02-26T12:02:52;9.70;99.90
27164;DHT22;14685;50.618;7.024;2024-02-26T12:05:31;9.80;99.90
27164;DHT22;14685;50.618;7.024;2024-02-26T12:08:07;9.90;99.90
27164;DHT22;14685;50.618;7.024;2024-02-26T12:10:36;9.90;99.90
27164;DHT22;14685;50.618;7.024;2024-02-26T12:13:15;9.90;99.90
27164;DHT22;14685;50.618;7.024;2024-02-26T12:18:19;9.90;99.90
27164;DHT22;14685;50.618;7.024;2024-02-26T12:21:04;9.90;99.90
27164;DHT22;14685;50.618;7.024;2024-02-26T12:23:31;10.10;99.90
27164;DHT22;14685;50.618;7.024;2024-02-26T12:26:00;10.00;99.90
27164;DHT22;14685;50.618;7.024;2024-02-26T12:28:32;10.00;99.90
27164;DHT22;14685;50.618;7.024;2024-02-26T12:31:02;10.00;99.90
27164;DHT22;14685;50.618;7.024;2024-02-26T12:33:30;10.00;99.90
27164;DHT22;14685;50.618;7.024;2024-02-26T12:35:59;10.00;99.90
27164;DHT22;14685;50.618;7.024;2024-02-26T12:38:27;10.00;99.90
27164;DHT22;14685;50.618;7.024;2024-02-26T12:40:54;10.00;99.90
27164;DHT22;14685;50.618;7.024;2024-02-26T12:43:21;10.00;99.90
27164;DHT22;14685;50.618;7.024;2024-02-26T12:45:48;10.00;99.90
27164;DHT22;14685;50.618;7.024;2024-02-26T12:48:15;10.10;99.90
27164;DHT22;14685;50.618;7.024;2024-02-26T12:50:46;10.10;99.90
27164;DHT22;14685;50.618;7.024;2024-02-26T12:53:16;10.10;99.90
27164;DHT22;14685;50.618;7.024;2024-02-26T12:55:46;10.20;99.90
27164;DHT22;14685;50.618;7.024;2024-02-26T12:58:14;10.10;99.90
27164;DHT22;14685;50.618;7.024;2024-02-26T13:00:42;10.20;99.90
27164;DHT22;14685;50.618;7.024;2024-02-26T13:03:10;10.20;99.90
27164;DHT22;14685;50.618;7.024;2024-02-26T13:05:37;10.20;99.90
27164;DHT22;14685;50.618;7.024;2024-02-26T13:08:04;10.20;99.90
27164;DHT22;14685;50.618;7.024;2024-02-26T13:10:35;10.20;99.90
27164;DHT22;14685;50.618;7.024;2024-02-26T13:13:02;10.30;99.90
27164;DHT22;14685;50.618;7.024;2024-02-26T13:15:30;10.20;99.90
27164;DHT22;14685;50.618;7.024;2024-02-26T13:17:57;10.30;99.90
27164;DHT22;14685;50.618;7.024;2024-02-26T13:20:31;10.30;99.90
27164;DHT22;14685;50.618;7.024;2024-02-26T13:23:10;10.30;99.90
27164;DHT22;14685;50.618;7.024;2024-02-26T13:25:38;10.30;99.90
27164;DHT22;14685;50.618;7.024;2024-02-26T13:28:18;10.30;99.90
27164;DHT22;14685;50.618;7.024;2024-02-26T13:30:56;10.30;99.90
27164;DHT22;14685;50.618;7.024;2024-02-26T13:33:25;10.30;99.90
27164;DHT22;14685;50.618;7.024;2024-02-26T13:35:53;10.30;99.90
27164;DHT22;14685;50.618;7.024;2024-02-26T13:38:20;10.30;99.90
27164;DHT22;14685;50.618;7.024;2024-02-26T13:40:47;10.20;99.90
27164;DHT22;14685;50.618;7.024;2024-02-26T13:43:14;10.20;99.90
27164;DHT22;14685;50.618;7.024;2024-02-26T13:45:42;10.20;99.90
27164;DHT22;14685;50.618;7.024;2024-02-26T13:48:10;10.30;99.90
27164;DHT22;14685;50.618;7.024;2024-02-26T13:50:42;10.30;99.90
27164;DHT22;14685;50.618;7.024;2024-02-26T13:53:13;10.20;99.90
27164;DHT22;14685;50.618;7.024;2024-02-26T13:55:41;10.30;99.90
27164;DHT22;14685;50.618;7.024;2024-02-26T13:58:12;10.30;99.90
27164;DHT22;14685;50.618;7.024;2024-02-26T14:00:43;10.30;99.90
27164;DHT22;14685;50.618;7.024;2024-02-26T14:03:10;10.30;99.90
27164;DHT22;14685;50.618;7.024;2024-02-26T14:05:38;10.30;99.90
27164;DHT22;14685;50.618;7.024;2024-02-26T14:08:05;10.30;99.90
27164;DHT22;14685;50.618;7.024;2024-02-26T14:10:33;10.20;99.90
27164;DHT22;14685;50.618;7.024;2024-02-26T14:12:59;10.30;99.90
27164;DHT22;14685;50.618;7.024;2024-02-26T14:15:28;10.40;99.90
27164;DHT22;14685;50.618;7.024;2024-02-26T14:17:56;10.40;99.90
27164;DHT22;14685;50.618;7.024;2024-02-26T14:20:24;10.40;99.90
27164;DHT22;14685;50.618;7.024;2024-02-26T14:22:52;10.40;99.90
27164;DHT22;14685;50.618;7.024;2024-02-26T14:25:21;10.40;99.90
27164;DHT22;14685;50.618;7.024;2024-02-26T14:27:57;10.40;99.90
27164;DHT22;14685;50.618;7.024;2024-02-26T14:30:26;10.40;99.90
27164;DHT22;14685;50.618;7.024;2024-02-26T14:32:54;10.40;99.90
27164;DHT22;14685;50.618;7.024;2024-02-26T14:35:21;10.40;99.90
27164;DHT22;14685;50.618;7.024;2024-02-26T14:37:48;10.40;99.90
27164;DHT22;14685;50.618;7.024;2024-02-26T14:40:18;10.40;99.90
27164;DHT22;14685;50.618;7.024;2024-02-26T14:42:45;10.50;99.90
27164;DHT22;14685;50.618;7.024;2024-02-26T14:45:13;10.50;99.90
27164;DHT22;14685;50.618;7.024;2024-02-26T14:47:41;10.40;99.90
27164;DHT22;14685;50.618;7.024;2024-02-26T14:50:08;10.40;99.90
27164;DHT22;14685;50.618;7.024;2024-02-26T14:52:35;10.40;99.90
27164;DHT22;14685;50.618;7.024;2024-02-26T14:55:02;10.40;99.90
27164;DHT22;14685;50.618;7.024;2024-02-26T14:57:29;10.40;99.90
27164;DHT22;14685;50.618;7.024;2024-02-26T14:59:56;10.40;99.90
27164;DHT22;14685;50.618;7.024;2024-02-26T15:02:24;10.50;99.90
27164;DHT22;14685;50.618;7.024;2024-02-26T15:04:51;10.40;99.90
27164;DHT22;14685;50.618;7.024;2024-02-26T15:07:18;10.50;99.90
27164;DHT22;14685;50.618;7.024;2024-02-26T15:09:47;10.40;99.90
27164;DHT22;14685;50.618;7.024;2024-02-26T15:12:14;10.40;99.90
27164;DHT22;14685;50.618;7.024;2024-02-26T15:14:44;10.40;99.90
27164;DHT22;14685;50.618;7.024;2024-02-26T15:17:12;10.20;99.90
27164;DHT22;14685;50.618;7.024;2024-02-26T15:19:40;10.30;99.90
27164;DHT22;14685;50.618;7.024;2024-02-26T15:22:08;10.20;99.90
27164;DHT22;14685;50.618;7.024;2024-02-26T15:24:35;10.20;99.90
27164;DHT22;14685;50.618;7.024;2024-02-26T15:27:02;10.10;99.90
27164;DHT22;14685;50.618;7.024;2024-02-26T15:29:30;10.10;99.90
27164;DHT22;14685;50.618;7.024;2024-02-26T15:31:57;10.00;99.90
27164;DHT22;14685;50.618;7.024;2024-02-26T15:34:25;10.10;99.90
27164;DHT22;14685;50.618;7.024;2024-02-26T15:36:52;10.10;99.90
27164;DHT22;14685;50.618;7.024;2024-02-26T15:39:19;10.10;99.90
27164;DHT22;14685;50.618;7.024;2024-02-26T15:41:48;10.20;99.90
27164;DHT22;14685;50.618;7.024;2024-02-26T15:44:15;10.10;99.90
27164;DHT22;14685;50.618;7.024;2024-02-26T15:46:42;10.10;99.90
27164;DHT22;14685;50.618;7.024;2024-02-26T15:49:09;10.10;99.90